sensor_id;sensor_type;location;lat;lon;timestamp;P1;durP1;ratioP1;P2;durP2;ratioP2
4756;SDS011;2392;52.578;13.426;2023-02-08T00:01:36;63.73;;;30.60;;
4756;SDS011;2392;52.578;13.426;2023-02-08T00:04:06;53.77;;;29.13;;
4756;SDS011;2392;52.578;13.426;2023-02-08T00:06:34;62.27;;;33.30;;
4756;SDS011;2392;52.578;13.426;2023-02-08T00:09:01;54.00;;;31.03;;
4756;SDS011;2392;52.578;13.426;2023-02-08T00:11:28;57.20;;;33.50;;
4756;SDS011;2392;52.578;13.426;2023-02-08T00:13:56;60.33;;;33.53;;
4756;SDS011;2392;52.578;13.426;2023-02-08T00:16:23;61.60;;;36.43;;
4756;SDS011;2392;52.578;13.426;2023-02-08T00:18:50;62.10;;;34.30;;
4756;SDS011;2392;52.578;13.426;2023-02-08T00:21:17;64.10;;;38.27;;
4756;SDS011;2392;52.578;13.426;2023-02-08T00:23:45;61.00;;;37.60;;
4756;SDS011;2392;52.578;13.426;2023-02-08T00:26:12;71.60;;;38.37;;
4756;SDS011;2392;52.578;13.426;2023-02-08T00:28:41;66.70;;;35.53;;
4756;SDS011;2392;52.578;13.426;2023-02-08T00:31:09;69.27;;;35.30;;
4756;SDS011;2392;52.578;13.426;2023-02-08T00:33:36;78.63;;;35.17;;
4756;SDS011;2392;52.578;13.426;2023-02-08T00:36:04;64.27;;;33.57;;
4756;SDS011;2392;52.578;13.426;2023-02-08T00:38:33;57.80;;;32.50;;
4756;SDS011;2392;52.578;13.426;2023-02-08T00:41:00;70.57;;;34.40;;
4756;SDS011;2392;52.578;13.426;2023-02-08T00:43:27;64.33;;;36.77;;
4756;SDS011;2392;52.578;13.426;2023-02-08T00:45:54;72.27;;;36.30;;
4756;SDS011;2392;52.578;13.426;2023-02-08T00:48:24;83.33;;;38.37;;
4756;SDS011;2392;52.578;13.426;2023-02-08T00:50:58;65.90;;;35.13;;
4756;SDS011;2392;52.578;13.426;2023-02-08T00:53:26;72.70;;;35.80;;
4756;SDS011;2392;52.578;13.426;2023-02-08T00:55:54;64.33;;;35.80;;
4756;SDS011;2392;52.578;13.426;2023-02-08T00:58:21;56.43;;;33.50;;
4756;SDS011;2392;52.578;13.426;2023-02-08T01:00:49;58.20;;;32.27;;
4756;SDS011;2392;52.578;13.426;2023-02-08T01:03:17;62.70;;;32.90;;
4756;SDS011;2392;52.578;13.426;2023-02-08T01:05:46;68.37;;;36.70;;
4756;SDS011;2392;52.578;13.426;2023-02-08T01:08:13;71.60;;;35.45;;
4756;SDS011;2392;52.578;13.426;2023-02-08T01:10:40;68.33;;;34.90;;
4756;SDS011;2392;52.578;13.426;2023-02-08T01:13:07;64.30;;;31.90;;
4756;SDS011;2392;52.578;13.426;2023-02-08T01:15:34;61.43;;;32.30;;
4756;SDS011;2392;52.578;13.426;2023-02-08T01:18:02;61.97;;;33.43;;
4756;SDS011;2392;52.578;13.426;2023-02-08T01:20:29;65.53;;;33.47;;
4756;SDS011;2392;52.578;13.426;2023-02-08T01:22:58;58.63;;;33.33;;
4756;SDS011;2392;52.578;13.426;2023-02-08T01:25:25;53.13;;;30.07;;
4756;SDS011;2392;52.578;13.426;2023-02-08T01:27:52;48.43;;;29.17;;
4756;SDS011;2392;52.578;13.426;2023-02-08T01:30:21;51.27;;;28.47;;
4756;SDS011;2392;52.578;13.426;2023-02-08T01:32:48;45.73;;;27.83;;
4756;SDS011;2392;52.578;13.426;2023-02-08T01:35:15;44.03;;;28.63;;
4756;SDS011;2392;52.578;13.426;2023-02-08T01:37:42;50.40;;;28.10;;
4756;SDS011;2392;52.578;13.426;2023-02-08T01:40:11;52.43;;;29.40;;
4756;SDS011;2392;52.578;13.426;2023-02-08T01:42:38;49.20;;;26.30;;
4756;SDS011;2392;52.578;13.426;2023-02-08T01:48:03;44.30;;;25.50;;
4756;SDS011;2392;52.578;13.426;2023-02-08T01:50:35;40.83;;;24.63;;
4756;SDS011;2392;52.578;13.426;2023-02-08T01:53:10;42.03;;;23.37;;
4756;SDS011;2392;52.578;13.426;2023-02-08T01:55:41;44.63;;;24.10;;
4756;SDS011;2392;52.578;13.426;2023-02-08T01:58:12;38.47;;;23.07;;
4756;SDS011;2392;52.578;13.426;2023-02-08T02:00:40;38.73;;;22.60;;
4756;SDS011;2392;52.578;13.426;2023-02-08T02:03:11;40.03;;;21.60;;
4756;SDS011;2392;52.578;13.426;2023-02-08T02:05:39;44.53;;;23.30;;
4756;SDS011;2392;52.578;13.426;2023-02-08T02:08:08;46.43;;;22.40;;
4756;SDS011;2392;52.578;13.426;2023-02-08T02:10:37;43.75;;;23.02;;
4756;SDS011;2392;52.578;13.426;2023-02-08T02:13:07;35.90;;;20.70;;
4756;SDS011;2392;52.578;13.426;2023-02-08T02:15:41;41.73;;;22.73;;
4756;SDS011;2392;52.578;13.426;2023-02-08T02:18:09;38.87;;;22.67;;
4756;SDS011;2392;52.578;13.426;2023-02-08T02:20:40;37.10;;;22.55;;
4756;SDS011;2392;52.578;13.426;2023-02-08T02:23:24;38.83;;;21.87;;
4756;SDS011;2392;52.578;13.426;2023-02-08T02:26:12;35.20;;;22.20;;
4756;SDS011;2392;52.578;13.426;2023-02-08T02:32:25;36.60;;;22.17;;
4756;SDS011;2392;52.578;13.426;2023-02-08T02:35:02;32.03;;;19.10;;
4756;SDS011;2392;52.578;13.426;2023-02-08T02:37:37;33.53;;;20.13;;
4756;SDS011;2392;52.578;13.426;2023-02-08T02:40:15;34.17;;;20.90;;
4756;SDS011;2392;52.578;13.426;2023-02-08T02:42:51;39.22;;;21.52;;
4756;SDS011;2392;52.578;13.426;2023-02-08T02:45:45;35.63;;;20.50;;
4756;SDS011;2392;52.578;13.426;2023-02-08T02:48:21;41.53;;;22.60;;
4756;SDS011;2392;52.578;13.426;2023-02-08T02:50:55;38.47;;;21.57;;
4756;SDS011;2392;52.578;13.426;2023-02-08T02:53:28;38.60;;;22.47;;
4756;SDS011;2392;52.578;13.426;2023-02-08T02:56:00;38.67;;;20.75;;
4756;SDS011;2392;52.578;13.426;2023-02-08T02:58:32;44.08;;;23.58;;
4756;SDS011;2392;52.578;13.426;2023-02-08T03:01:01;39.50;;;22.05;;
4756;SDS011;2392;52.578;13.426;2023-02-08T03:03:31;44.95;;;23.20;;
4756;SDS011;2392;52.578;13.426;2023-02-08T03:06:00;40.33;;;22.88;;
4756;SDS011;2392;52.578;13.426;2023-02-08T03:08:52;43.97;;;22.70;;
4756;SDS011;2392;52.578;13.426;2023-02-08T03:11:30;38.72;;;22.35;;
4756;SDS011;2392;52.578;13.426;2023-02-08T03:14:13;39.28;;;21.33;;
4756;SDS011;2392;52.578;13.426;2023-02-08T03:17:18;37.38;;;21.40;;
4756;SDS011;2392;52.578;13.426;2023-02-08T03:20:01;35.72;;;19.85;;
4756;SDS011;2392;52.578;13.426;2023-02-08T03:22:34;40.17;;;21.67;;
4756;SDS011;2392;52.578;13.426;2023-02-08T03:25:08;40.83;;;23.13;;
4756;SDS011;2392;52.578;13.426;2023-02-08T03:27:43;41.08;;;22.05;;
4756;SDS011;2392;52.578;13.426;2023-02-08T03:30:19;38.43;;;20.90;;
4756;SDS011;2392;52.578;13.426;2023-02-08T03:32:52;31.13;;;19.80;;
4756;SDS011;2392;52.578;13.426;2023-02-08T03:35:26;33.85;;;19.02;;
4756;SDS011;2392;52.578;13.426;2023-02-08T03:37:57;33.50;;;18.85;;
4756;SDS011;2392;52.578;13.426;2023-02-08T03:40:27;33.05;;;18.95;;
4756;SDS011;2392;52.578;13.426;2023-02-08T03:42:59;34.67;;;18.17;;
4756;SDS011;2392;52.578;13.426;2023-02-08T03:45:31;30.80;;;16.80;;
4756;SDS011;2392;52.578;13.426;2023-02-08T03:48:03;37.88;;;18.63;;
4756;SDS011;2392;52.578;13.426;2023-02-08T03:50:35;36.80;;;17.50;;
4756;SDS011;2392;52.578;13.426;2023-02-08T03:53:04;29.75;;;16.58;;
4756;SDS011;2392;52.578;13.426;2023-02-08T03:55:34;30.73;;;17.10;;
4756;SDS011;2392;52.578;13.426;2023-02-08T03:58:04;26.70;;;16.37;;
4756;SDS011;2392;52.578;13.426;2023-02-08T04:00:37;30.75;;;16.48;;
4756;SDS011;2392;52.578;13.426;2023-02-08T04:03:10;29.93;;;16.67;;
4756;SDS011;2392;52.578;13.426;2023-02-08T04:05:42;29.85;;;16.98;;
4756;SDS011;2392;52.578;13.426;2023-02-08T04:08:10;23.97;;;15.13;;
4756;SDS011;2392;52.578;13.426;2023-02-08T04:10:37;32.93;;;16.20;;
4756;SDS011;2392;52.578;13.426;2023-02-08T04:13:04;30.53;;;15.70;;
4756;SDS011;2392;52.578;13.426;2023-02-08T04:15:31;28.37;;;16.23;;
4756;SDS011;2392;52.578;13.426;2023-02-08T04:17:58;29.77;;;17.47;;
4756;SDS011;2392;52.578;13.426;2023-02-08T04:20:25;27.63;;;16.23;;
4756;SDS011;2392;52.578;13.426;2023-02-08T04:22:53;28.97;;;15.93;;
4756;SDS011;2392;52.578;13.426;2023-02-08T04:25:20;23.10;;;15.27;;
4756;SDS011;2392;52.578;13.426;2023-02-08T04:27:47;27.47;;;14.63;;
4756;SDS011;2392;52.578;13.426;2023-02-08T04:30:16;30.23;;;16.70;;
4756;SDS011;2392;52.578;13.426;2023-02-08T04:32:43;26.10;;;16.00;;
4756;SDS011;2392;52.578;13.426;2023-02-08T04:35:10;29.17;;;16.63;;
4756;SDS011;2392;52.578;13.426;2023-02-08T04:37:37;25.35;;;15.43;;
4756;SDS011;2392;52.578;13.426;2023-02-08T04:40:06;20.67;;;13.75;;
4756;SDS011;2392;52.578;13.426;2023-02-08T04:42:33;32.08;;;16.20;;
4756;SDS011;2392;52.578;13.426;2023-02-08T04:45:00;25.83;;;15.47;;
4756;SDS011;2392;52.578;13.426;2023-02-08T04:47:27;21.83;;;12.60;;
4756;SDS011;2392;52.578;13.426;2023-02-08T04:49:54;25.50;;;15.30;;
4756;SDS011;2392;52.578;13.426;2023-02-08T04:52:21;26.73;;;14.47;;
4756;SDS011;2392;52.578;13.426;2023-02-08T04:54:48;29.43;;;14.60;;
4756;SDS011;2392;52.578;13.426;2023-02-08T04:57:16;26.10;;;14.83;;
4756;SDS011;2392;52.578;13.426;2023-02-08T04:59:43;23.13;;;14.77;;
4756;SDS011;2392;52.578;13.426;2023-02-08T05:02:10;30.30;;;17.80;;
4756;SDS011;2392;52.578;13.426;2023-02-08T05:04:37;34.90;;;19.20;;
4756;SDS011;2392;52.578;13.426;2023-02-08T05:07:04;30.30;;;17.43;;
4756;SDS011;2392;52.578;13.426;2023-02-08T05:09:31;31.77;;;17.30;;
4756;SDS011;2392;52.578;13.426;2023-02-08T05:11:58;30.20;;;16.77;;
4756;SDS011;2392;52.578;13.426;2023-02-08T05:14:27;28.37;;;16.57;;
4756;SDS011;2392;52.578;13.426;2023-02-08T05:16:54;24.50;;;14.83;;
4756;SDS011;2392;52.578;13.426;2023-02-08T05:19:21;26.57;;;15.47;;
4756;SDS011;2392;52.578;13.426;2023-02-08T05:21:48;27.10;;;15.10;;
4756;SDS011;2392;52.578;13.426;2023-02-08T05:24:15;27.03;;;15.30;;
4756;SDS011;2392;52.578;13.426;2023-02-08T05:26:42;26.97;;;15.27;;
4756;SDS011;2392;52.578;13.426;2023-02-08T05:29:09;25.97;;;15.70;;
4756;SDS011;2392;52.578;13.426;2023-02-08T05:31:37;22.93;;;14.50;;
4756;SDS011;2392;52.578;13.426;2023-02-08T05:34:04;31.37;;;18.50;;
4756;SDS011;2392;52.578;13.426;2023-02-08T05:36:31;28.57;;;18.13;;
4756;SDS011;2392;52.578;13.426;2023-02-08T05:38:58;45.60;;;24.55;;
4756;SDS011;2392;52.578;13.426;2023-02-08T05:41:25;38.70;;;23.13;;
4756;SDS011;2392;52.578;13.426;2023-02-08T05:43:52;43.72;;;24.38;;
4756;SDS011;2392;52.578;13.426;2023-02-08T05:46:19;46.83;;;22.63;;
4756;SDS011;2392;52.578;13.426;2023-02-08T05:48:48;35.77;;;20.83;;
4756;SDS011;2392;52.578;13.426;2023-02-08T05:51:15;27.27;;;16.97;;
4756;SDS011;2392;52.578;13.426;2023-02-08T05:53:42;32.50;;;17.80;;
4756;SDS011;2392;52.578;13.426;2023-02-08T05:56:09;25.17;;;15.65;;
4756;SDS011;2392;52.578;13.426;2023-02-08T05:58:36;29.60;;;17.03;;
4756;SDS011;2392;52.578;13.426;2023-02-08T06:01:06;32.07;;;16.57;;
4756;SDS011;2392;52.578;13.426;2023-02-08T06:03:34;24.33;;;14.03;;
4756;SDS011;2392;52.578;13.426;2023-02-08T06:06:03;26.33;;;16.67;;
4756;SDS011;2392;52.578;13.426;2023-02-08T06:08:30;24.77;;;16.30;;
4756;SDS011;2392;52.578;13.426;2023-02-08T06:10:57;28.23;;;15.13;;
4756;SDS011;2392;52.578;13.426;2023-02-08T06:13:24;27.50;;;16.00;;
4756;SDS011;2392;52.578;13.426;2023-02-08T06:15:53;26.83;;;15.50;;
4756;SDS011;2392;52.578;13.426;2023-02-08T06:18:20;31.23;;;17.97;;
4756;SDS011;2392;52.578;13.426;2023-02-08T06:20:47;30.63;;;18.87;;
4756;SDS011;2392;52.578;13.426;2023-02-08T06:23:18;33.10;;;18.80;;
4756;SDS011;2392;52.578;13.426;2023-02-08T06:25:45;32.90;;;19.30;;
4756;SDS011;2392;52.578;13.426;2023-02-08T06:28:12;27.73;;;16.43;;
4756;SDS011;2392;52.578;13.426;2023-02-08T06:30:39;28.90;;;16.77;;
4756;SDS011;2392;52.578;13.426;2023-02-08T06:33:09;28.42;;;17.60;;
4756;SDS011;2392;52.578;13.426;2023-02-08T06:35:36;34.33;;;17.70;;
4756;SDS011;2392;52.578;13.426;2023-02-08T06:38:03;28.77;;;15.50;;
4756;SDS011;2392;52.578;13.426;2023-02-08T06:40:31;28.17;;;15.63;;
4756;SDS011;2392;52.578;13.426;2023-02-08T06:42:58;28.57;;;15.03;;
4756;SDS011;2392;52.578;13.426;2023-02-08T06:45:26;31.57;;;16.63;;
4756;SDS011;2392;52.578;13.426;2023-02-08T06:47:53;35.42;;;17.27;;
4756;SDS011;2392;52.578;13.426;2023-02-08T06:50:20;29.20;;;16.93;;
4756;SDS011;2392;52.578;13.426;2023-02-08T06:52:47;27.90;;;16.88;;
4756;SDS011;2392;52.578;13.426;2023-02-08T06:55:14;26.30;;;16.98;;
4756;SDS011;2392;52.578;13.426;2023-02-08T06:57:42;32.97;;;16.77;;
4756;SDS011;2392;52.578;13.426;2023-02-08T07:00:10;21.23;;;15.23;;
4756;SDS011;2392;52.578;13.426;2023-02-08T07:02:39;29.13;;;16.67;;
4756;SDS011;2392;52.578;13.426;2023-02-08T07:05:09;32.07;;;17.50;;
4756;SDS011;2392;52.578;13.426;2023-02-08T07:07:36;28.33;;;18.27;;
4756;SDS011;2392;52.578;13.426;2023-02-08T07:10:03;33.03;;;18.63;;
4756;SDS011;2392;52.578;13.426;2023-02-08T07:12:31;32.93;;;17.10;;
4756;SDS011;2392;52.578;13.426;2023-02-08T07:15:00;31.57;;;17.70;;
4756;SDS011;2392;52.578;13.426;2023-02-08T07:17:27;32.10;;;17.00;;
4756;SDS011;2392;52.578;13.426;2023-02-08T07:19:54;31.40;;;17.57;;
4756;SDS011;2392;52.578;13.426;2023-02-08T07:22:21;32.17;;;19.00;;
4756;SDS011;2392;52.578;13.426;2023-02-08T07:24:48;27.13;;;17.20;;
4756;SDS011;2392;52.578;13.426;2023-02-08T07:27:15;31.50;;;15.90;;
4756;SDS011;2392;52.578;13.426;2023-02-08T07:29:42;30.20;;;16.00;;
4756;SDS011;2392;52.578;13.426;2023-02-08T07:32:10;26.60;;;16.37;;
4756;SDS011;2392;52.578;13.426;2023-02-08T07:34:37;33.63;;;16.73;;
4756;SDS011;2392;52.578;13.426;2023-02-08T07:37:05;31.77;;;15.80;;
4756;SDS011;2392;52.578;13.426;2023-02-08T07:39:36;30.80;;;17.90;;
4756;SDS011;2392;52.578;13.426;2023-02-08T07:42:03;27.23;;;15.10;;
4756;SDS011;2392;52.578;13.426;2023-02-08T07:44:35;29.83;;;16.03;;
4756;SDS011;2392;52.578;13.426;2023-02-08T07:47:03;29.10;;;16.50;;
4756;SDS011;2392;52.578;13.426;2023-02-08T07:49:32;27.03;;;15.67;;
4756;SDS011;2392;52.578;13.426;2023-02-08T07:52:01;27.00;;;16.40;;
4756;SDS011;2392;52.578;13.426;2023-02-08T07:54:28;31.13;;;15.57;;
4756;SDS011;2392;52.578;13.426;2023-02-08T07:56:55;28.73;;;18.23;;
4756;SDS011;2392;52.578;13.426;2023-02-08T07:59:22;31.67;;;18.70;;
4756;SDS011;2392;52.578;13.426;2023-02-08T08:01:50;30.80;;;17.80;;
4756;SDS011;2392;52.578;13.426;2023-02-08T08:04:17;26.83;;;16.70;;
4756;SDS011;2392;52.578;13.426;2023-02-08T08:06:47;30.40;;;16.50;;
4756;SDS011;2392;52.578;13.426;2023-02-08T08:09:15;30.47;;;17.17;;
4756;SDS011;2392;52.578;13.426;2023-02-08T08:11:44;30.17;;;16.90;;
4756;SDS011;2392;52.578;13.426;2023-02-08T08:14:11;22.50;;;16.17;;
4756;SDS011;2392;52.578;13.426;2023-02-08T08:16:38;28.00;;;16.47;;
4756;SDS011;2392;52.578;13.426;2023-02-08T08:19:06;25.47;;;15.43;;
4756;SDS011;2392;52.578;13.426;2023-02-08T08:21:33;27.07;;;16.77;;
4756;SDS011;2392;52.578;13.426;2023-02-08T08:24:05;23.53;;;15.17;;
4756;SDS011;2392;52.578;13.426;2023-02-08T08:26:38;32.67;;;16.80;;
4756;SDS011;2392;52.578;13.426;2023-02-08T08:29:08;29.70;;;15.30;;
4756;SDS011;2392;52.578;13.426;2023-02-08T08:31:35;32.33;;;17.50;;
4756;SDS011;2392;52.578;13.426;2023-02-08T08:34:02;32.00;;;17.90;;
4756;SDS011;2392;52.578;13.426;2023-02-08T08:36:29;29.60;;;17.20;;
4756;SDS011;2392;52.578;13.426;2023-02-08T08:38:56;28.77;;;16.87;;
4756;SDS011;2392;52.578;13.426;2023-02-08T08:41:25;26.37;;;16.97;;
4756;SDS011;2392;52.578;13.426;2023-02-08T08:43:52;31.63;;;18.43;;
4756;SDS011;2392;52.578;13.426;2023-02-08T08:46:22;43.77;;;23.60;;
4756;SDS011;2392;52.578;13.426;2023-02-08T08:48:49;40.57;;;20.00;;
4756;SDS011;2392;52.578;13.426;2023-02-08T08:51:16;29.17;;;17.43;;
4756;SDS011;2392;52.578;13.426;2023-02-08T08:53:43;30.03;;;17.43;;
4756;SDS011;2392;52.578;13.426;2023-02-08T08:56:10;30.80;;;17.60;;
4756;SDS011;2392;52.578;13.426;2023-02-08T08:58:39;28.40;;;17.33;;
4756;SDS011;2392;52.578;13.426;2023-02-08T09:01:07;29.60;;;17.77;;
4756;SDS011;2392;52.578;13.426;2023-02-08T09:03:34;32.13;;;17.90;;
4756;SDS011;2392;52.578;13.426;2023-02-08T09:06:01;33.37;;;19.67;;
4756;SDS011;2392;52.578;13.426;2023-02-08T09:08:28;28.90;;;17.37;;
4756;SDS011;2392;52.578;13.426;2023-02-08T09:10:55;32.03;;;19.70;;
4756;SDS011;2392;52.578;13.426;2023-02-08T09:13:22;33.33;;;19.17;;
4756;SDS011;2392;52.578;13.426;2023-02-08T09:15:51;33.00;;;19.20;;
4756;SDS011;2392;52.578;13.426;2023-02-08T09:18:17;28.13;;;17.37;;
4756;SDS011;2392;52.578;13.426;2023-02-08T09:20:44;33.00;;;19.87;;
4756;SDS011;2392;52.578;13.426;2023-02-08T09:23:11;34.23;;;19.80;;
4756;SDS011;2392;52.578;13.426;2023-02-08T09:25:39;38.00;;;20.47;;
4756;SDS011;2392;52.578;13.426;2023-02-08T09:28:06;30.80;;;18.20;;
4756;SDS011;2392;52.578;13.426;2023-02-08T09:30:33;34.40;;;18.70;;
4756;SDS011;2392;52.578;13.426;2023-02-08T09:33:02;33.80;;;19.77;;
4756;SDS011;2392;52.578;13.426;2023-02-08T09:35:28;28.60;;;18.60;;
4756;SDS011;2392;52.578;13.426;2023-02-08T09:37:56;38.90;;;19.73;;
4756;SDS011;2392;52.578;13.426;2023-02-08T09:40:27;33.87;;;20.30;;
4756;SDS011;2392;52.578;13.426;2023-02-08T09:43:03;45.30;;;21.37;;
4756;SDS011;2392;52.578;13.426;2023-02-08T09:45:38;36.47;;;19.87;;
4756;SDS011;2392;52.578;13.426;2023-02-08T09:48:20;33.20;;;19.10;;
4756;SDS011;2392;52.578;13.426;2023-02-08T09:50:51;30.90;;;19.53;;
4756;SDS011;2392;52.578;13.426;2023-02-08T09:53:22;32.53;;;19.33;;
4756;SDS011;2392;52.578;13.426;2023-02-08T09:55:57;34.30;;;18.63;;
4756;SDS011;2392;52.578;13.426;2023-02-08T09:58:28;30.67;;;18.63;;
4756;SDS011;2392;52.578;13.426;2023-02-08T10:00:59;45.47;;;19.70;;
4756;SDS011;2392;52.578;13.426;2023-02-08T10:03:31;29.83;;;18.63;;
4756;SDS011;2392;52.578;13.426;2023-02-08T10:06:00;31.07;;;19.40;;
4756;SDS011;2392;52.578;13.426;2023-02-08T10:08:28;37.20;;;20.80;;
4756;SDS011;2392;52.578;13.426;2023-02-08T10:10:58;35.60;;;21.90;;
4756;SDS011;2392;52.578;13.426;2023-02-08T10:13:50;39.60;;;20.53;;
4756;SDS011;2392;52.578;13.426;2023-02-08T10:16:41;35.10;;;19.13;;
4756;SDS011;2392;52.578;13.426;2023-02-08T10:19:33;33.57;;;20.20;;
4756;SDS011;2392;52.578;13.426;2023-02-08T10:22:13;34.90;;;21.30;;
4756;SDS011;2392;52.578;13.426;2023-02-08T10:24:58;37.40;;;21.40;;
4756;SDS011;2392;52.578;13.426;2023-02-08T10:27:47;42.87;;;23.20;;
4756;SDS011;2392;52.578;13.426;2023-02-08T10:30:28;33.63;;;22.93;;
4756;SDS011;2392;52.578;13.426;2023-02-08T10:33:01;35.70;;;22.80;;
4756;SDS011;2392;52.578;13.426;2023-02-08T10:35:34;37.50;;;22.30;;
4756;SDS011;2392;52.578;13.426;2023-02-08T10:38:11;33.80;;;24.53;;
4756;SDS011;2392;52.578;13.426;2023-02-08T10:40:48;38.40;;;24.13;;
4756;SDS011;2392;52.578;13.426;2023-02-08T10:43:18;35.20;;;24.87;;
4756;SDS011;2392;52.578;13.426;2023-02-08T10:45:51;37.57;;;25.47;;
4756;SDS011;2392;52.578;13.426;2023-02-08T10:48:30;36.90;;;23.67;;
4756;SDS011;2392;52.578;13.426;2023-02-08T10:51:09;31.63;;;23.80;;
4756;SDS011;2392;52.578;13.426;2023-02-08T10:53:40;41.23;;;26.10;;
4756;SDS011;2392;52.578;13.426;2023-02-08T10:56:08;37.33;;;23.90;;
4756;SDS011;2392;52.578;13.426;2023-02-08T10:58:54;35.20;;;25.27;;
4756;SDS011;2392;52.578;13.426;2023-02-08T11:01:22;40.33;;;27.40;;
4756;SDS011;2392;52.578;13.426;2023-02-08T11:03:59;35.47;;;26.00;;
4756;SDS011;2392;52.578;13.426;2023-02-08T11:06:28;38.83;;;25.90;;
4756;SDS011;2392;52.578;13.426;2023-02-08T11:08:55;37.80;;;26.30;;
4756;SDS011;2392;52.578;13.426;2023-02-08T11:11:23;37.33;;;26.40;;
4756;SDS011;2392;52.578;13.426;2023-02-08T11:13:54;36.43;;;26.27;;
4756;SDS011;2392;52.578;13.426;2023-02-08T11:16:32;34.27;;;25.77;;
4756;SDS011;2392;52.578;13.426;2023-02-08T11:18:59;34.50;;;24.63;;
4756;SDS011;2392;52.578;13.426;2023-02-08T11:21:31;37.87;;;26.80;;
4756;SDS011;2392;52.578;13.426;2023-02-08T11:24:16;35.07;;;25.17;;
4756;SDS011;2392;52.578;13.426;2023-02-08T11:26:51;36.10;;;24.57;;
4756;SDS011;2392;52.578;13.426;2023-02-08T11:29:21;30.60;;;24.00;;
4756;SDS011;2392;52.578;13.426;2023-02-08T11:31:55;37.57;;;25.00;;
4756;SDS011;2392;52.578;13.426;2023-02-08T11:34:24;36.40;;;25.43;;
4756;SDS011;2392;52.578;13.426;2023-02-08T11:36:55;34.83;;;25.60;;
4756;SDS011;2392;52.578;13.426;2023-02-08T11:39:23;36.03;;;25.17;;
4756;SDS011;2392;52.578;13.426;2023-02-08T11:41:54;33.03;;;25.37;;
4756;SDS011;2392;52.578;13.426;2023-02-08T11:44:25;30.10;;;22.90;;
4756;SDS011;2392;52.578;13.426;2023-02-08T11:46:55;33.60;;;23.97;;
4756;SDS011;2392;52.578;13.426;2023-02-08T11:49:26;32.93;;;25.13;;
4756;SDS011;2392;52.578;13.426;2023-02-08T11:51:58;38.10;;;24.03;;
4756;SDS011;2392;52.578;13.426;2023-02-08T11:54:32;34.40;;;23.60;;
4756;SDS011;2392;52.578;13.426;2023-02-08T11:57:10;33.90;;;23.20;;
4756;SDS011;2392;52.578;13.426;2023-02-08T11:59:40;32.57;;;23.47;;
4756;SDS011;2392;52.578;13.426;2023-02-08T12:02:27;29.60;;;23.17;;
4756;SDS011;2392;52.578;13.426;2023-02-08T12:04:56;35.87;;;25.13;;
4756;SDS011;2392;52.578;13.426;2023-02-08T12:07:28;33.83;;;25.47;;
4756;SDS011;2392;52.578;13.426;2023-02-08T12:13:06;32.90;;;24.60;;
4756;SDS011;2392;52.578;13.426;2023-02-08T12:15:46;33.47;;;25.63;;
4756;SDS011;2392;52.578;13.426;2023-02-08T12:21:22;32.27;;;22.83;;
4756;SDS011;2392;52.578;13.426;2023-02-08T12:23:55;31.43;;;23.23;;
4756;SDS011;2392;52.578;13.426;2023-02-08T12:26:32;34.23;;;23.40;;
4756;SDS011;2392;52.578;13.426;2023-02-08T12:29:25;30.20;;;22.40;;
4756;SDS011;2392;52.578;13.426;2023-02-08T12:32:10;41.20;;;24.87;;
4756;SDS011;2392;52.578;13.426;2023-02-08T12:34:55;32.40;;;23.40;;
4756;SDS011;2392;52.578;13.426;2023-02-08T12:37:32;34.57;;;24.37;;
4756;SDS011;2392;52.578;13.426;2023-02-08T12:40:29;35.50;;;24.37;;
4756;SDS011;2392;52.578;13.426;2023-02-08T12:46:10;33.97;;;23.17;;
4756;SDS011;2392;52.578;13.426;2023-02-08T12:48:55;32.97;;;21.90;;
4756;SDS011;2392;52.578;13.426;2023-02-08T12:51:45;32.73;;;23.30;;
4756;SDS011;2392;52.578;13.426;2023-02-08T12:54:20;35.20;;;22.07;;
4756;SDS011;2392;52.578;13.426;2023-02-08T12:56:57;34.33;;;22.50;;
4756;SDS011;2392;52.578;13.426;2023-02-08T12:59:27;32.27;;;23.13;;
4756;SDS011;2392;52.578;13.426;2023-02-08T13:01:59;34.00;;;23.60;;
4756;SDS011;2392;52.578;13.426;2023-02-08T13:04:35;34.50;;;23.33;;
4756;SDS011;2392;52.578;13.426;2023-02-08T13:07:07;32.00;;;23.03;;
4756;SDS011;2392;52.578;13.426;2023-02-08T13:09:41;35.37;;;23.63;;
4756;SDS011;2392;52.578;13.426;2023-02-08T13:12:14;33.57;;;22.90;;
4756;SDS011;2392;52.578;13.426;2023-02-08T13:14:44;33.77;;;22.10;;
4756;SDS011;2392;52.578;13.426;2023-02-08T13:17:16;39.27;;;22.97;;
4756;SDS011;2392;52.578;13.426;2023-02-08T13:19:49;33.80;;;21.90;;
4756;SDS011;2392;52.578;13.426;2023-02-08T13:22:20;34.33;;;21.27;;
4756;SDS011;2392;52.578;13.426;2023-02-08T13:24:47;34.57;;;22.43;;
4756;SDS011;2392;52.578;13.426;2023-02-08T13:27:20;37.20;;;21.80;;
4756;SDS011;2392;52.578;13.426;2023-02-08T13:29:48;36.37;;;22.10;;
4756;SDS011;2392;52.578;13.426;2023-02-08T13:32:17;32.10;;;21.07;;
4756;SDS011;2392;52.578;13.426;2023-02-08T13:34:54;33.70;;;22.40;;
4756;SDS011;2392;52.578;13.426;2023-02-08T13:37:24;34.90;;;21.70;;
4756;SDS011;2392;52.578;13.426;2023-02-08T13:39:56;34.67;;;21.93;;
4756;SDS011;2392;52.578;13.426;2023-02-08T13:42:28;31.67;;;21.17;;
4756;SDS011;2392;52.578;13.426;2023-02-08T13:44:59;37.83;;;21.70;;
4756;SDS011;2392;52.578;13.426;2023-02-08T13:47:28;35.80;;;20.27;;
4756;SDS011;2392;52.578;13.426;2023-02-08T13:49:57;35.70;;;20.87;;
4756;SDS011;2392;52.578;13.426;2023-02-08T13:58:37;43.50;;;22.83;;
4756;SDS011;2392;52.578;13.426;2023-02-08T14:01:25;30.93;;;19.97;;
4756;SDS011;2392;52.578;13.426;2023-02-08T14:07:02;28.90;;;18.17;;
4756;SDS011;2392;52.578;13.426;2023-02-08T14:09:43;27.67;;;17.33;;
4756;SDS011;2392;52.578;13.426;2023-02-08T14:12:20;31.67;;;18.43;;
4756;SDS011;2392;52.578;13.426;2023-02-08T14:17:52;34.50;;;19.00;;
4756;SDS011;2392;52.578;13.426;2023-02-08T14:20:23;36.40;;;20.03;;
4756;SDS011;2392;52.578;13.426;2023-02-08T14:22:55;36.50;;;19.73;;
4756;SDS011;2392;52.578;13.426;2023-02-08T14:25:24;33.73;;;20.63;;
4756;SDS011;2392;52.578;13.426;2023-02-08T14:27:54;32.17;;;19.90;;
4756;SDS011;2392;52.578;13.426;2023-02-08T14:30:26;30.13;;;19.50;;
4756;SDS011;2392;52.578;13.426;2023-02-08T14:33:07;47.57;;;22.40;;
4756;SDS011;2392;52.578;13.426;2023-02-08T14:35:40;30.73;;;18.57;;
4756;SDS011;2392;52.578;13.426;2023-02-08T14:38:33;33.10;;;20.20;;
4756;SDS011;2392;52.578;13.426;2023-02-08T14:50:28;35.83;;;19.23;;
4756;SDS011;2392;52.578;13.426;2023-02-08T14:53:01;34.30;;;20.27;;
4756;SDS011;2392;52.578;13.426;2023-02-08T14:55:33;34.13;;;19.93;;
4756;SDS011;2392;52.578;13.426;2023-02-08T14:58:05;33.93;;;19.50;;
4756;SDS011;2392;52.578;13.426;2023-02-08T15:00:36;32.97;;;18.60;;
4756;SDS011;2392;52.578;13.426;2023-02-08T15:03:04;31.27;;;16.73;;
4756;SDS011;2392;52.578;13.426;2023-02-08T15:05:40;28.50;;;16.63;;
4756;SDS011;2392;52.578;13.426;2023-02-08T15:08:19;38.50;;;17.70;;
4756;SDS011;2392;52.578;13.426;2023-02-08T15:10:46;31.33;;;17.93;;
4756;SDS011;2392;52.578;13.426;2023-02-08T15:13:16;31.67;;;18.20;;
4756;SDS011;2392;52.578;13.426;2023-02-08T15:15:45;33.50;;;17.60;;
4756;SDS011;2392;52.578;13.426;2023-02-08T15:18:19;26.93;;;16.73;;
4756;SDS011;2392;52.578;13.426;2023-02-08T15:20:57;30.77;;;18.13;;
4756;SDS011;2392;52.578;13.426;2023-02-08T15:23:27;31.40;;;18.80;;
4756;SDS011;2392;52.578;13.426;2023-02-08T15:25:56;30.17;;;18.13;;
4756;SDS011;2392;52.578;13.426;2023-02-08T15:28:25;31.77;;;19.00;;
4756;SDS011;2392;52.578;13.426;2023-02-08T15:30:54;33.70;;;19.50;;
4756;SDS011;2392;52.578;13.426;2023-02-08T15:33:24;42.43;;;20.80;;